Strona główna
METAR-TAF:

METAR-TAF

Lotnisko :

Port lotniczy Split

Split, Chorwacja

Szerokość geograficzna: 43-32N, Długość geograficzna: 016-18E, wysokość: 19 m

Aktualna obserwacja pogody

Raport powstał 19 minut temu, godzina 04:30 UTC
Cisza
Temperatura 8°C
Wilgotność 57%
Ciśnienie 1021 hPa
Widzialność 10 km lub więcej
Brak chmur poniżej 1500 m i brak chmur cumulonimbus

METAR: LDSP 090430Z 00000KT CAVOK 08/M00 Q1021 NOSIG

czas: 06:49 (04:49 UTC)

Prognoza

Raport powstał 5 godziny i 24 minut temu, godzina 23:25 UTC
Prognoza ważna od 09 godzina 00 UTC do 10 godzina 00 UTC
Wiatr 6 kt od północny zachód
Widzialność 10 km lub więcej
Brak chmur poniżej 1500 m i brak chmur cumulonimbus
Stopniowe zmiany
od 09 godzina 09 UTC do 09 godzina 11 UTC
Wiatr 12 kt od południowy zachód
Stopniowe zmiany
od 09 godzina 14 UTC do 09 godzina 16 UTC
Wiatr 8 kt od północno-północny zachód

TAF: LDSP 082325Z 0900/1000 32006KT CAVOK TX22/0912Z TN10/0905Z BECMG 0909/0911 23012KT BECMG 0914/0916 34008KT

Obserwacja i prognoza pogody dla ponad 4000 lotnisk (raport METAR i TAF).

Dostępne stacje oznaczono żółtymi i czerwonymi punktami na mapie.

Najedź kursorem aby zobaczyć nazwę stacji.

Kliknij aby zobaczyć obserwacje i prognozy pogody.

Aby zmienić mapę: kliknij na zielony przycisk z czarnym krzyżykiem, aby powiększyć; na zielony przycisk z myślnikiem, aby pomniejszyć; na zielone strzałki, aby przejść do map sąsiednich.


METAR-TAF: